sensor_id;sensor_type;location;lat;lon;timestamp;P1;durP1;ratioP1;P2;durP2;ratioP2
22080;SDS011;11207;59.512;18.050;2023-04-03T00:01:13;7.43;;;4.33;;
22080;SDS011;11207;59.512;18.050;2023-04-03T00:03:39;6.17;;;4.63;;
22080;SDS011;11207;59.512;18.050;2023-04-03T00:06:06;8.50;;;4.10;;
22080;SDS011;11207;59.512;18.050;2023-04-03T00:08:33;4.50;;;4.10;;
22080;SDS011;11207;59.512;18.050;2023-04-03T00:11:00;7.53;;;4.20;;
22080;SDS011;11207;59.512;18.050;2023-04-03T00:13:26;4.47;;;4.07;;
22080;SDS011;11207;59.512;18.050;2023-04-03T00:15:52;6.73;;;4.50;;
22080;SDS011;11207;59.512;18.050;2023-04-03T00:18:18;6.93;;;4.57;;
22080;SDS011;11207;59.512;18.050;2023-04-03T00:20:44;7.10;;;4.70;;
22080;SDS011;11207;59.512;18.050;2023-04-03T00:23:10;4.90;;;4.47;;
22080;SDS011;11207;59.512;18.050;2023-04-03T00:25:35;5.63;;;4.40;;
22080;SDS011;11207;59.512;18.050;2023-04-03T00:28:02;5.83;;;4.10;;
22080;SDS011;11207;59.512;18.050;2023-04-03T00:30:28;7.63;;;4.30;;
22080;SDS011;11207;59.512;18.050;2023-04-03T00:32:57;6.47;;;4.57;;
22080;SDS011;11207;59.512;18.050;2023-04-03T00:35:23;5.60;;;4.23;;
22080;SDS011;11207;59.512;18.050;2023-04-03T00:37:53;4.60;;;4.20;;
22080;SDS011;11207;59.512;18.050;2023-04-03T00:40:20;5.73;;;4.40;;
22080;SDS011;11207;59.512;18.050;2023-04-03T00:42:48;9.43;;;4.40;;
22080;SDS011;11207;59.512;18.050;2023-04-03T00:45:49;7.23;;;4.40;;
22080;SDS011;11207;59.512;18.050;2023-04-03T00:48:10;6.33;;;4.63;;
22080;SDS011;11207;59.512;18.050;2023-04-03T00:50:41;5.73;;;4.40;;
22080;SDS011;11207;59.512;18.050;2023-04-03T00:53:11;5.07;;;4.13;;
22080;SDS011;11207;59.512;18.050;2023-04-03T00:55:40;9.13;;;4.60;;
22080;SDS011;11207;59.512;18.050;2023-04-03T00:58:07;6.97;;;4.40;;
22080;SDS011;11207;59.512;18.050;2023-04-03T01:00:34;8.13;;;4.33;;
22080;SDS011;11207;59.512;18.050;2023-04-03T01:03:02;6.33;;;4.23;;
22080;SDS011;11207;59.512;18.050;2023-04-03T01:05:28;4.63;;;4.10;;
22080;SDS011;11207;59.512;18.050;2023-04-03T01:07:54;6.33;;;4.57;;
22080;SDS011;11207;59.512;18.050;2023-04-03T01:10:21;10.07;;;4.30;;
22080;SDS011;11207;59.512;18.050;2023-04-03T01:12:48;10.20;;;4.60;;
22080;SDS011;11207;59.512;18.050;2023-04-03T01:15:17;4.53;;;4.10;;
22080;SDS011;11207;59.512;18.050;2023-04-03T01:17:49;8.50;;;4.70;;
22080;SDS011;11207;59.512;18.050;2023-04-03T01:25:41;9.73;;;4.60;;
22080;SDS011;11207;59.512;18.050;2023-04-03T01:28:13;4.97;;;4.43;;
22080;SDS011;11207;59.512;18.050;2023-04-03T01:30:53;7.17;;;4.63;;
22080;SDS011;11207;59.512;18.050;2023-04-03T01:33:25;7.87;;;4.77;;
22080;SDS011;11207;59.512;18.050;2023-04-03T01:35:51;7.43;;;4.87;;
22080;SDS011;11207;59.512;18.050;2023-04-03T01:38:17;4.97;;;4.47;;
22080;SDS011;11207;59.512;18.050;2023-04-03T01:40:42;9.23;;;4.90;;
22080;SDS011;11207;59.512;18.050;2023-04-03T01:43:08;7.93;;;5.07;;
22080;SDS011;11207;59.512;18.050;2023-04-03T01:45:34;4.70;;;4.30;;
22080;SDS011;11207;59.512;18.050;2023-04-03T01:48:00;14.50;;;4.53;;
22080;SDS011;11207;59.512;18.050;2023-04-03T01:50:25;10.47;;;4.20;;
22080;SDS011;11207;59.512;18.050;2023-04-03T01:52:51;10.17;;;5.30;;
22080;SDS011;11207;59.512;18.050;2023-04-03T01:55:16;5.53;;;4.50;;
22080;SDS011;11207;59.512;18.050;2023-04-03T01:57:42;11.00;;;4.77;;
22080;SDS011;11207;59.512;18.050;2023-04-03T02:00:08;6.37;;;4.53;;
22080;SDS011;11207;59.512;18.050;2023-04-03T02:02:34;10.53;;;5.00;;
22080;SDS011;11207;59.512;18.050;2023-04-03T02:05:00;9.53;;;4.53;;
22080;SDS011;11207;59.512;18.050;2023-04-03T02:07:26;6.37;;;4.50;;
22080;SDS011;11207;59.512;18.050;2023-04-03T02:09:52;8.10;;;4.37;;
22080;SDS011;11207;59.512;18.050;2023-04-03T02:12:17;5.07;;;4.57;;
22080;SDS011;11207;59.512;18.050;2023-04-03T02:14:43;6.33;;;4.57;;
22080;SDS011;11207;59.512;18.050;2023-04-03T02:17:09;4.60;;;4.30;;
22080;SDS011;11207;59.512;18.050;2023-04-03T02:19:35;5.03;;;4.50;;
22080;SDS011;11207;59.512;18.050;2023-04-03T02:22:04;4.80;;;4.37;;
22080;SDS011;11207;59.512;18.050;2023-04-03T02:24:30;5.57;;;4.70;;
22080;SDS011;11207;59.512;18.050;2023-04-03T02:26:56;6.77;;;4.50;;
22080;SDS011;11207;59.512;18.050;2023-04-03T02:29:22;9.97;;;5.27;;
22080;SDS011;11207;59.512;18.050;2023-04-03T02:31:50;9.00;;;4.20;;
22080;SDS011;11207;59.512;18.050;2023-04-03T02:34:16;10.77;;;4.53;;
22080;SDS011;11207;59.512;18.050;2023-04-03T02:36:42;5.57;;;4.20;;
22080;SDS011;11207;59.512;18.050;2023-04-03T02:39:08;6.50;;;4.60;;
22080;SDS011;11207;59.512;18.050;2023-04-03T02:41:34;12.23;;;5.07;;
22080;SDS011;11207;59.512;18.050;2023-04-03T02:44:04;7.13;;;4.37;;
22080;SDS011;11207;59.512;18.050;2023-04-03T02:46:31;9.87;;;4.80;;
22080;SDS011;11207;59.512;18.050;2023-04-03T02:48:57;5.70;;;4.70;;
22080;SDS011;11207;59.512;18.050;2023-04-03T02:51:22;7.83;;;4.57;;
22080;SDS011;11207;59.512;18.050;2023-04-03T02:53:48;5.50;;;4.47;;
22080;SDS011;11207;59.512;18.050;2023-04-03T02:56:16;6.40;;;5.17;;
22080;SDS011;11207;59.512;18.050;2023-04-03T02:58:43;8.07;;;4.40;;
22080;SDS011;11207;59.512;18.050;2023-04-03T03:01:09;6.87;;;5.13;;
22080;SDS011;11207;59.512;18.050;2023-04-03T03:03:35;4.90;;;4.47;;
22080;SDS011;11207;59.512;18.050;2023-04-03T03:06:02;9.73;;;4.60;;
22080;SDS011;11207;59.512;18.050;2023-04-03T03:08:32;4.73;;;4.30;;
22080;SDS011;11207;59.512;18.050;2023-04-03T03:10:59;5.33;;;4.70;;
22080;SDS011;11207;59.512;18.050;2023-04-03T03:13:25;5.77;;;5.17;;
22080;SDS011;11207;59.512;18.050;2023-04-03T03:15:51;8.83;;;5.17;;
22080;SDS011;11207;59.512;18.050;2023-04-03T03:18:16;5.30;;;4.80;;
22080;SDS011;11207;59.512;18.050;2023-04-03T03:20:42;7.33;;;4.80;;
22080;SDS011;11207;59.512;18.050;2023-04-03T03:23:08;8.33;;;4.60;;
22080;SDS011;11207;59.512;18.050;2023-04-03T03:25:37;7.23;;;4.70;;
22080;SDS011;11207;59.512;18.050;2023-04-03T03:28:04;6.60;;;4.93;;
22080;SDS011;11207;59.512;18.050;2023-04-03T03:30:30;5.17;;;4.67;;
22080;SDS011;11207;59.512;18.050;2023-04-03T03:32:58;5.77;;;4.20;;
22080;SDS011;11207;59.512;18.050;2023-04-03T03:35:24;6.87;;;4.80;;
22080;SDS011;11207;59.512;18.050;2023-04-03T03:37:50;6.60;;;5.03;;
22080;SDS011;11207;59.512;18.050;2023-04-03T03:40:15;4.93;;;4.10;;
22080;SDS011;11207;59.512;18.050;2023-04-03T03:42:41;5.13;;;4.70;;
22080;SDS011;11207;59.512;18.050;2023-04-03T03:45:07;8.17;;;5.17;;
22080;SDS011;11207;59.512;18.050;2023-04-03T03:47:33;7.53;;;4.40;;
22080;SDS011;11207;59.512;18.050;2023-04-03T03:49:59;10.83;;;4.63;;
22080;SDS011;11207;59.512;18.050;2023-04-03T03:52:25;6.17;;;5.07;;
22080;SDS011;11207;59.512;18.050;2023-04-03T03:54:53;6.10;;;4.80;;
22080;SDS011;11207;59.512;18.050;2023-04-03T03:57:18;6.03;;;5.23;;
22080;SDS011;11207;59.512;18.050;2023-04-03T03:59:50;7.23;;;5.20;;
22080;SDS011;11207;59.512;18.050;2023-04-03T04:02:17;6.10;;;4.60;;
22080;SDS011;11207;59.512;18.050;2023-04-03T04:04:43;5.80;;;4.93;;
22080;SDS011;11207;59.512;18.050;2023-04-03T04:07:08;5.40;;;4.73;;
22080;SDS011;11207;59.512;18.050;2023-04-03T04:09:34;7.17;;;4.93;;
22080;SDS011;11207;59.512;18.050;2023-04-03T04:12:00;8.50;;;5.07;;
22080;SDS011;11207;59.512;18.050;2023-04-03T04:14:25;9.47;;;4.90;;
22080;SDS011;11207;59.512;18.050;2023-04-03T04:16:51;6.70;;;5.40;;
22080;SDS011;11207;59.512;18.050;2023-04-03T04:19:17;6.03;;;5.30;;
22080;SDS011;11207;59.512;18.050;2023-04-03T04:21:42;10.87;;;5.67;;
22080;SDS011;11207;59.512;18.050;2023-04-03T04:24:08;9.57;;;5.43;;
22080;SDS011;11207;59.512;18.050;2023-04-03T04:26:34;7.47;;;5.20;;
22080;SDS011;11207;59.512;18.050;2023-04-03T04:29:00;7.97;;;5.27;;
22080;SDS011;11207;59.512;18.050;2023-04-03T04:31:26;5.93;;;5.13;;
22080;SDS011;11207;59.512;18.050;2023-04-03T04:33:52;7.93;;;5.57;;
22080;SDS011;11207;59.512;18.050;2023-04-03T04:36:18;7.40;;;5.53;;
22080;SDS011;11207;59.512;18.050;2023-04-03T04:38:44;7.23;;;5.17;;
22080;SDS011;11207;59.512;18.050;2023-04-03T04:41:10;11.57;;;5.93;;
22080;SDS011;11207;59.512;18.050;2023-04-03T04:43:36;5.87;;;5.33;;
22080;SDS011;11207;59.512;18.050;2023-04-03T04:46:02;5.73;;;5.13;;
22080;SDS011;11207;59.512;18.050;2023-04-03T04:48:29;7.63;;;5.67;;
22080;SDS011;11207;59.512;18.050;2023-04-03T04:50:55;8.43;;;4.90;;
22080;SDS011;11207;59.512;18.050;2023-04-03T04:53:21;7.73;;;5.63;;
22080;SDS011;11207;59.512;18.050;2023-04-03T04:55:47;5.43;;;4.90;;
22080;SDS011;11207;59.512;18.050;2023-04-03T04:58:13;7.40;;;5.30;;
22080;SDS011;11207;59.512;18.050;2023-04-03T05:00:39;6.70;;;5.10;;
22080;SDS011;11207;59.512;18.050;2023-04-03T05:03:05;5.50;;;4.40;;
22080;SDS011;11207;59.512;18.050;2023-04-03T05:05:30;6.73;;;4.93;;
22080;SDS011;11207;59.512;18.050;2023-04-03T05:07:56;10.37;;;5.00;;
22080;SDS011;11207;59.512;18.050;2023-04-03T05:10:21;6.83;;;4.60;;
22080;SDS011;11207;59.512;18.050;2023-04-03T05:12:47;6.27;;;4.63;;
22080;SDS011;11207;59.512;18.050;2023-04-03T05:15:13;6.43;;;4.97;;
22080;SDS011;11207;59.512;18.050;2023-04-03T05:17:39;6.37;;;4.50;;
22080;SDS011;11207;59.512;18.050;2023-04-03T05:20:05;7.30;;;4.80;;
22080;SDS011;11207;59.512;18.050;2023-04-03T05:22:31;5.00;;;4.60;;
22080;SDS011;11207;59.512;18.050;2023-04-03T05:24:57;8.53;;;5.70;;
22080;SDS011;11207;59.512;18.050;2023-04-03T05:27:23;10.60;;;4.80;;
22080;SDS011;11207;59.512;18.050;2023-04-03T05:29:49;7.13;;;4.50;;
22080;SDS011;11207;59.512;18.050;2023-04-03T05:32:15;12.57;;;5.57;;
22080;SDS011;11207;59.512;18.050;2023-04-03T05:34:41;7.70;;;4.67;;
22080;SDS011;11207;59.512;18.050;2023-04-03T05:37:07;11.47;;;5.40;;
22080;SDS011;11207;59.512;18.050;2023-04-03T05:39:33;7.73;;;4.93;;
22080;SDS011;11207;59.512;18.050;2023-04-03T05:41:58;8.73;;;5.37;;
22080;SDS011;11207;59.512;18.050;2023-04-03T05:44:24;7.40;;;4.53;;
22080;SDS011;11207;59.512;18.050;2023-04-03T05:46:50;12.53;;;5.50;;
22080;SDS011;11207;59.512;18.050;2023-04-03T05:49:15;7.23;;;4.97;;
22080;SDS011;11207;59.512;18.050;2023-04-03T05:52:17;8.20;;;5.20;;
22080;SDS011;11207;59.512;18.050;2023-04-03T05:54:46;4.97;;;4.50;;
22080;SDS011;11207;59.512;18.050;2023-04-03T05:57:13;12.07;;;5.40;;
22080;SDS011;11207;59.512;18.050;2023-04-03T05:59:40;8.37;;;5.10;;
22080;SDS011;11207;59.512;18.050;2023-04-03T06:02:09;10.73;;;5.13;;
22080;SDS011;11207;59.512;18.050;2023-04-03T06:04:39;5.20;;;4.53;;
22080;SDS011;11207;59.512;18.050;2023-04-03T06:07:05;9.97;;;5.30;;
22080;SDS011;11207;59.512;18.050;2023-04-03T06:09:32;5.60;;;5.07;;
22080;SDS011;11207;59.512;18.050;2023-04-03T06:11:58;6.80;;;4.77;;
22080;SDS011;11207;59.512;18.050;2023-04-03T06:14:24;5.83;;;4.30;;
22080;SDS011;11207;59.512;18.050;2023-04-03T06:16:51;5.73;;;4.87;;
22080;SDS011;11207;59.512;18.050;2023-04-03T06:19:17;4.73;;;4.33;;
22080;SDS011;11207;59.512;18.050;2023-04-03T06:21:43;6.90;;;4.40;;
22080;SDS011;11207;59.512;18.050;2023-04-03T06:24:09;9.57;;;4.63;;
22080;SDS011;11207;59.512;18.050;2023-04-03T06:26:37;10.43;;;5.03;;
22080;SDS011;11207;59.512;18.050;2023-04-03T06:29:03;7.90;;;5.30;;
22080;SDS011;11207;59.512;18.050;2023-04-03T06:31:28;4.77;;;4.37;;
22080;SDS011;11207;59.512;18.050;2023-04-03T06:33:55;5.67;;;4.53;;
22080;SDS011;11207;59.512;18.050;2023-04-03T06:36:21;7.80;;;4.90;;
22080;SDS011;11207;59.512;18.050;2023-04-03T06:38:47;8.20;;;4.67;;
22080;SDS011;11207;59.512;18.050;2023-04-03T06:41:13;8.47;;;4.47;;
22080;SDS011;11207;59.512;18.050;2023-04-03T06:43:39;7.77;;;5.03;;
22080;SDS011;11207;59.512;18.050;2023-04-03T06:46:05;5.97;;;4.40;;
22080;SDS011;11207;59.512;18.050;2023-04-03T06:48:34;6.53;;;4.60;;
22080;SDS011;11207;59.512;18.050;2023-04-03T06:51:00;9.63;;;5.13;;
22080;SDS011;11207;59.512;18.050;2023-04-03T06:53:26;6.33;;;4.33;;
22080;SDS011;11207;59.512;18.050;2023-04-03T06:55:51;9.40;;;4.50;;
22080;SDS011;11207;59.512;18.050;2023-04-03T06:58:19;9.40;;;5.17;;
22080;SDS011;11207;59.512;18.050;2023-04-03T07:00:45;12.47;;;4.90;;
22080;SDS011;11207;59.512;18.050;2023-04-03T07:03:12;8.17;;;5.43;;
22080;SDS011;11207;59.512;18.050;2023-04-03T07:05:38;5.60;;;4.10;;
22080;SDS011;11207;59.512;18.050;2023-04-03T07:08:03;8.13;;;4.93;;
22080;SDS011;11207;59.512;18.050;2023-04-03T07:10:32;6.00;;;4.47;;
22080;SDS011;11207;59.512;18.050;2023-04-03T07:12:57;10.60;;;5.27;;
22080;SDS011;11207;59.512;18.050;2023-04-03T07:15:23;5.47;;;3.97;;
22080;SDS011;11207;59.512;18.050;2023-04-03T07:17:49;10.53;;;5.10;;
22080;SDS011;11207;59.512;18.050;2023-04-03T07:20:15;9.60;;;4.93;;
22080;SDS011;11207;59.512;18.050;2023-04-03T07:22:40;7.50;;;4.67;;
22080;SDS011;11207;59.512;18.050;2023-04-03T07:25:06;8.63;;;4.37;;
22080;SDS011;11207;59.512;18.050;2023-04-03T07:39:03;11.30;;;4.30;;
22080;SDS011;11207;59.512;18.050;2023-04-03T07:41:29;9.93;;;5.17;;
22080;SDS011;11207;59.512;18.050;2023-04-03T07:43:55;7.47;;;4.27;;
22080;SDS011;11207;59.512;18.050;2023-04-03T07:46:21;8.03;;;4.30;;
22080;SDS011;11207;59.512;18.050;2023-04-03T07:48:47;8.80;;;4.10;;
22080;SDS011;11207;59.512;18.050;2023-04-03T07:51:13;6.87;;;3.90;;
22080;SDS011;11207;59.512;18.050;2023-04-03T07:53:39;4.77;;;4.23;;
22080;SDS011;11207;59.512;18.050;2023-04-03T07:56:06;11.17;;;5.40;;
22080;SDS011;11207;59.512;18.050;2023-04-03T07:58:32;5.57;;;4.50;;
22080;SDS011;11207;59.512;18.050;2023-04-03T08:00:58;6.70;;;4.60;;
22080;SDS011;11207;59.512;18.050;2023-04-03T08:03:24;8.97;;;5.07;;
22080;SDS011;11207;59.512;18.050;2023-04-03T08:05:50;5.47;;;4.00;;
22080;SDS011;11207;59.512;18.050;2023-04-03T08:08:17;13.43;;;4.40;;
22080;SDS011;11207;59.512;18.050;2023-04-03T08:10:47;8.57;;;4.33;;
22080;SDS011;11207;59.512;18.050;2023-04-03T08:13:17;8.40;;;4.03;;
22080;SDS011;11207;59.512;18.050;2023-04-03T08:15:44;6.87;;;4.40;;
22080;SDS011;11207;59.512;18.050;2023-04-03T08:18:10;6.73;;;3.83;;
22080;SDS011;11207;59.512;18.050;2023-04-03T08:20:35;9.90;;;4.20;;
22080;SDS011;11207;59.512;18.050;2023-04-03T08:23:03;5.17;;;3.93;;
22080;SDS011;11207;59.512;18.050;2023-04-03T08:25:29;5.43;;;3.97;;
22080;SDS011;11207;59.512;18.050;2023-04-03T08:27:58;6.37;;;4.60;;
22080;SDS011;11207;59.512;18.050;2023-04-03T08:30:24;6.00;;;3.93;;
22080;SDS011;11207;59.512;18.050;2023-04-03T08:32:49;9.20;;;4.23;;
22080;SDS011;11207;59.512;18.050;2023-04-03T08:35:15;5.83;;;3.63;;
22080;SDS011;11207;59.512;18.050;2023-04-03T08:37:41;7.07;;;4.10;;
22080;SDS011;11207;59.512;18.050;2023-04-03T08:40:07;6.80;;;4.20;;
22080;SDS011;11207;59.512;18.050;2023-04-03T08:48:21;7.07;;;4.47;;
22080;SDS011;11207;59.512;18.050;2023-04-03T08:50:57;9.00;;;4.10;;
22080;SDS011;11207;59.512;18.050;2023-04-03T08:53:27;7.73;;;4.00;;
22080;SDS011;11207;59.512;18.050;2023-04-03T08:55:57;10.80;;;4.27;;
22080;SDS011;11207;59.512;18.050;2023-04-03T08:58:28;5.03;;;3.70;;
22080;SDS011;11207;59.512;18.050;2023-04-03T09:01:00;5.40;;;4.00;;
22080;SDS011;11207;59.512;18.050;2023-04-03T09:03:33;6.57;;;3.83;;
22080;SDS011;11207;59.512;18.050;2023-04-03T09:08:54;6.47;;;4.17;;
22080;SDS011;11207;59.512;18.050;2023-04-03T09:14:32;7.23;;;3.77;;
22080;SDS011;11207;59.512;18.050;2023-04-03T09:19:54;4.13;;;3.53;;
22080;SDS011;11207;59.512;18.050;2023-04-03T09:22:27;9.10;;;4.20;;
22080;SDS011;11207;59.512;18.050;2023-04-03T09:25:13;5.17;;;3.80;;
22080;SDS011;11207;59.512;18.050;2023-04-03T09:27:42;6.83;;;4.07;;
22080;SDS011;11207;59.512;18.050;2023-04-03T09:30:12;7.83;;;3.60;;
22080;SDS011;11207;59.512;18.050;2023-04-03T09:32:45;6.10;;;4.03;;
22080;SDS011;11207;59.512;18.050;2023-04-03T09:35:27;6.67;;;3.87;;
22080;SDS011;11207;59.512;18.050;2023-04-03T09:40:39;5.10;;;3.60;;
22080;SDS011;11207;59.512;18.050;2023-04-03T09:45:52;4.57;;;3.63;;
22080;SDS011;11207;59.512;18.050;2023-04-03T09:48:22;5.17;;;3.70;;
22080;SDS011;11207;59.512;18.050;2023-04-03T09:56:18;3.07;;;2.80;;
22080;SDS011;11207;59.512;18.050;2023-04-03T09:58:51;5.90;;;3.77;;
22080;SDS011;11207;59.512;18.050;2023-04-03T10:01:39;6.87;;;3.20;;
22080;SDS011;11207;59.512;18.050;2023-04-03T10:04:16;3.97;;;3.23;;
22080;SDS011;11207;59.512;18.050;2023-04-03T10:06:47;7.67;;;3.60;;
22080;SDS011;11207;59.512;18.050;2023-04-03T10:14:26;5.07;;;3.40;;
22080;SDS011;11207;59.512;18.050;2023-04-03T10:16:56;5.87;;;3.17;;
22080;SDS011;11207;59.512;18.050;2023-04-03T10:19:45;3.63;;;2.97;;
22080;SDS011;11207;59.512;18.050;2023-04-03T10:22:37;6.53;;;2.93;;
22080;SDS011;11207;59.512;18.050;2023-04-03T10:28:12;3.87;;;2.90;;
22080;SDS011;11207;59.512;18.050;2023-04-03T10:33:20;3.43;;;2.70;;
22080;SDS011;11207;59.512;18.050;2023-04-03T10:39:02;6.17;;;3.03;;
22080;SDS011;11207;59.512;18.050;2023-04-03T10:53:40;3.40;;;2.83;;
22080;SDS011;11207;59.512;18.050;2023-04-03T10:56:51;5.40;;;3.20;;
22080;SDS011;11207;59.512;18.050;2023-04-03T11:04:53;4.10;;;3.00;;
22080;SDS011;11207;59.512;18.050;2023-04-03T11:07:46;3.17;;;2.90;;
22080;SDS011;11207;59.512;18.050;2023-04-03T11:14:21;6.07;;;3.60;;
22080;SDS011;11207;59.512;18.050;2023-04-03T11:17:19;5.00;;;2.97;;
22080;SDS011;11207;59.512;18.050;2023-04-03T11:20:06;2.90;;;2.70;;
22080;SDS011;11207;59.512;18.050;2023-04-03T11:23:00;4.03;;;2.80;;
22080;SDS011;11207;59.512;18.050;2023-04-03T11:25:42;3.97;;;3.17;;
22080;SDS011;11207;59.512;18.050;2023-04-03T11:28:12;2.80;;;2.60;;
22080;SDS011;11207;59.512;18.050;2023-04-03T11:33:10;3.33;;;3.03;;
22080;SDS011;11207;59.512;18.050;2023-04-03T11:35:55;3.47;;;3.00;;
22080;SDS011;11207;59.512;18.050;2023-04-03T11:38:35;4.33;;;2.90;;
22080;SDS011;11207;59.512;18.050;2023-04-03T11:41:06;4.03;;;2.67;;
22080;SDS011;11207;59.512;18.050;2023-04-03T11:43:55;2.70;;;2.60;;
22080;SDS011;11207;59.512;18.050;2023-04-03T11:58:09;5.37;;;2.60;;
22080;SDS011;11207;59.512;18.050;2023-04-03T12:24:27;3.30;;;3.00;;
22080;SDS011;11207;59.512;18.050;2023-04-03T12:29:49;2.97;;;2.77;;
22080;SDS011;11207;59.512;18.050;2023-04-03T12:40:57;5.27;;;2.80;;
22080;SDS011;11207;59.512;18.050;2023-04-03T12:48:38;2.97;;;2.70;;
22080;SDS011;11207;59.512;18.050;2023-04-03T12:51:15;2.90;;;2.70;;
22080;SDS011;11207;59.512;18.050;2023-04-03T12:53:48;3.00;;;2.80;;
22080;SDS011;11207;59.512;18.050;2023-04-03T12:56:29;3.90;;;2.90;;
22080;SDS011;11207;59.512;18.050;2023-04-03T13:01:59;3.23;;;2.77;;
22080;SDS011;11207;59.512;18.050;2023-04-03T13:04:30;3.93;;;2.80;;
22080;SDS011;11207;59.512;18.050;2023-04-03T13:06:56;4.90;;;2.97;;
22080;SDS011;11207;59.512;18.050;2023-04-03T13:09:27;2.97;;;2.70;;
22080;SDS011;11207;59.512;18.050;2023-04-03T13:12:01;2.90;;;2.70;;
22080;SDS011;11207;59.512;18.050;2023-04-03T13:14:54;3.00;;;2.67;;
22080;SDS011;11207;59.512;18.050;2023-04-03T13:17:25;3.20;;;2.90;;
22080;SDS011;11207;59.512;18.050;2023-04-03T13:19:52;2.93;;;2.70;;
22080;SDS011;11207;59.512;18.050;2023-04-03T13:25:08;5.33;;;3.00;;
22080;SDS011;11207;59.512;18.050;2023-04-03T13:27:38;3.40;;;2.90;;
22080;SDS011;11207;59.512;18.050;2023-04-03T13:30:17;3.33;;;2.90;;
22080;SDS011;11207;59.512;18.050;2023-04-03T13:32:51;4.20;;;2.87;;
22080;SDS011;11207;59.512;18.050;2023-04-03T13:38:05;3.27;;;2.70;;
22080;SDS011;11207;59.512;18.050;2023-04-03T13:40:51;2.90;;;2.70;;
22080;SDS011;11207;59.512;18.050;2023-04-03T13:43:28;3.17;;;2.90;;
22080;SDS011;11207;59.512;18.050;2023-04-03T13:45:59;4.20;;;2.80;;
22080;SDS011;11207;59.512;18.050;2023-04-03T13:48:35;6.43;;;2.90;;
22080;SDS011;11207;59.512;18.050;2023-04-03T13:53:44;6.03;;;2.80;;
22080;SDS011;11207;59.512;18.050;2023-04-03T13:59:03;2.97;;;2.67;;
22080;SDS011;11207;59.512;18.050;2023-04-03T14:01:43;3.13;;;2.90;;
22080;SDS011;11207;59.512;18.050;2023-04-03T14:07:09;3.43;;;3.10;;
22080;SDS011;11207;59.512;18.050;2023-04-03T14:09:36;3.10;;;2.90;;
22080;SDS011;11207;59.512;18.050;2023-04-03T14:12:05;3.00;;;2.80;;
22080;SDS011;11207;59.512;18.050;2023-04-03T14:14:34;3.47;;;2.80;;
22080;SDS011;11207;59.512;18.050;2023-04-03T14:17:02;5.03;;;2.73;;
22080;SDS011;11207;59.512;18.050;2023-04-03T14:19:35;4.03;;;2.80;;
22080;SDS011;11207;59.512;18.050;2023-04-03T14:22:06;3.17;;;2.90;;
22080;SDS011;11207;59.512;18.050;2023-04-03T14:24:38;3.30;;;2.63;;
22080;SDS011;11207;59.512;18.050;2023-04-03T14:27:05;3.10;;;2.80;;
22080;SDS011;11207;59.512;18.050;2023-04-03T14:29:44;4.53;;;2.60;;
22080;SDS011;11207;59.512;18.050;2023-04-03T14:32:12;4.10;;;2.87;;
22080;SDS011;11207;59.512;18.050;2023-04-03T14:34:40;2.90;;;2.70;;
22080;SDS011;11207;59.512;18.050;2023-04-03T14:37:09;4.07;;;3.03;;
22080;SDS011;11207;59.512;18.050;2023-04-03T14:39:40;3.90;;;2.87;;
22080;SDS011;11207;59.512;18.050;2023-04-03T14:42:11;3.67;;;2.67;;
22080;SDS011;11207;59.512;18.050;2023-04-03T14:44:38;6.07;;;2.93;;
22080;SDS011;11207;59.512;18.050;2023-04-03T14:47:04;5.57;;;2.90;;
22080;SDS011;11207;59.512;18.050;2023-04-03T14:49:32;3.33;;;2.57;;
22080;SDS011;11207;59.512;18.050;2023-04-03T14:51:58;2.90;;;2.60;;
22080;SDS011;11207;59.512;18.050;2023-04-03T14:54:24;3.20;;;2.90;;
22080;SDS011;11207;59.512;18.050;2023-04-03T14:56:54;3.47;;;3.10;;
22080;SDS011;11207;59.512;18.050;2023-04-03T14:59:21;2.90;;;2.50;;
22080;SDS011;11207;59.512;18.050;2023-04-03T15:01:47;3.03;;;2.83;;
22080;SDS011;11207;59.512;18.050;2023-04-03T15:04:17;8.50;;;3.20;;
22080;SDS011;11207;59.512;18.050;2023-04-03T15:06:45;4.23;;;3.13;;
22080;SDS011;11207;59.512;18.050;2023-04-03T15:09:22;2.63;;;2.50;;
22080;SDS011;11207;59.512;18.050;2023-04-03T15:11:49;4.07;;;2.90;;
22080;SDS011;11207;59.512;18.050;2023-04-03T15:14:16;5.60;;;2.87;;
22080;SDS011;11207;59.512;18.050;2023-04-03T15:16:42;3.37;;;2.97;;
22080;SDS011;11207;59.512;18.050;2023-04-03T15:19:08;2.80;;;2.60;;
22080;SDS011;11207;59.512;18.050;2023-04-03T15:21:34;3.07;;;2.77;;
22080;SDS011;11207;59.512;18.050;2023-04-03T15:24:01;4.13;;;2.80;;
22080;SDS011;11207;59.512;18.050;2023-04-03T15:26:26;5.57;;;3.27;;
22080;SDS011;11207;59.512;18.050;2023-04-03T15:28:52;2.90;;;2.70;;
22080;SDS011;11207;59.512;18.050;2023-04-03T15:31:18;3.37;;;3.00;;
22080;SDS011;11207;59.512;18.050;2023-04-03T15:33:43;3.00;;;2.80;;
22080;SDS011;11207;59.512;18.050;2023-04-03T15:36:09;3.50;;;3.20;;
22080;SDS011;11207;59.512;18.050;2023-04-03T15:38:35;8.00;;;3.30;;
22080;SDS011;11207;59.512;18.050;2023-04-03T15:41:03;3.10;;;2.73;;
22080;SDS011;11207;59.512;18.050;2023-04-03T15:43:29;4.03;;;2.93;;
22080;SDS011;11207;59.512;18.050;2023-04-03T15:45:56;4.50;;;2.90;;
22080;SDS011;11207;59.512;18.050;2023-04-03T15:48:23;3.33;;;3.03;;
22080;SDS011;11207;59.512;18.050;2023-04-03T15:50:49;2.90;;;2.70;;
22080;SDS011;11207;59.512;18.050;2023-04-03T15:53:15;3.67;;;2.90;;
22080;SDS011;11207;59.512;18.050;2023-04-03T15:55:40;4.80;;;2.90;;
22080;SDS011;11207;59.512;18.050;2023-04-03T15:58:07;6.20;;;3.07;;
22080;SDS011;11207;59.512;18.050;2023-04-03T16:00:33;7.90;;;3.00;;
22080;SDS011;11207;59.512;18.050;2023-04-03T16:03:02;3.10;;;2.80;;
22080;SDS011;11207;59.512;18.050;2023-04-03T16:05:31;4.67;;;3.10;;
22080;SDS011;11207;59.512;18.050;2023-04-03T16:07:57;5.00;;;3.47;;
22080;SDS011;11207;59.512;18.050;2023-04-03T16:10:25;4.03;;;3.30;;
22080;SDS011;11207;59.512;18.050;2023-04-03T16:12:53;3.90;;;2.80;;
22080;SDS011;11207;59.512;18.050;2023-04-03T16:15:19;3.27;;;3.07;;
22080;SDS011;11207;59.512;18.050;2023-04-03T16:17:44;4.70;;;3.10;;
22080;SDS011;11207;59.512;18.050;2023-04-03T16:20:11;3.97;;;3.10;;
22080;SDS011;11207;59.512;18.050;2023-04-03T16:22:38;3.25;;;2.78;;
22080;SDS011;11207;59.512;18.050;2023-04-03T16:27:51;3.23;;;2.93;;
22080;SDS011;11207;59.512;18.050;2023-04-03T16:30:17;3.70;;;3.30;;
22080;SDS011;11207;59.512;18.050;2023-04-03T16:32:43;3.17;;;2.90;;
22080;SDS011;11207;59.512;18.050;2023-04-03T16:35:10;3.67;;;3.13;;
22080;SDS011;11207;59.512;18.050;2023-04-03T16:37:36;3.60;;;3.30;;
22080;SDS011;11207;59.512;18.050;2023-04-03T16:40:04;5.07;;;3.03;;
22080;SDS011;11207;59.512;18.050;2023-04-03T16:42:31;4.10;;;2.90;;
22080;SDS011;11207;59.512;18.050;2023-04-03T16:44:57;3.00;;;2.80;;
22080;SDS011;11207;59.512;18.050;2023-04-03T16:47:25;3.10;;;2.90;;
22080;SDS011;11207;59.512;18.050;2023-04-03T16:49:51;5.17;;;2.90;;
22080;SDS011;11207;59.512;18.050;2023-04-03T16:52:17;3.47;;;3.17;;
22080;SDS011;11207;59.512;18.050;2023-04-03T16:54:42;4.40;;;3.33;;
22080;SDS011;11207;59.512;18.050;2023-04-03T16:57:08;3.40;;;3.10;;
22080;SDS011;11207;59.512;18.050;2023-04-03T16:59:34;4.23;;;3.37;;
22080;SDS011;11207;59.512;18.050;2023-04-03T17:01:59;3.13;;;2.90;;
22080;SDS011;11207;59.512;18.050;2023-04-03T17:04:25;3.47;;;3.03;;
22080;SDS011;11207;59.512;18.050;2023-04-03T17:06:51;3.00;;;2.80;;
22080;SDS011;11207;59.512;18.050;2023-04-03T17:09:16;3.20;;;3.00;;
22080;SDS011;11207;59.512;18.050;2023-04-03T17:11:42;3.53;;;3.10;;
22080;SDS011;11207;59.512;18.050;2023-04-03T17:14:08;3.30;;;3.00;;